Main page
METAR-TAF:

METAR-TAF

Airports :

Ilhéus Jorge Amado Airport

Ilhéus, Bahia, Brazil

latitude: 14-49S, longitude: 039-02W, elevation: 4 m

Current weather observation

The report was made 1 hour and 15 minutes ago, at 17:00 UTC
Wind 6 kt from the North/Northeast
Temperature 30°C
Humidity 79%
Pressure 1011 hPa
Visibility 10 km or more
Few clouds at a height of 2500 ft
Broken clouds at a height of 10000 ft

METAR: SBIL 251700Z 02006KT 9999 FEW025 BKN100 30/26 Q1011

Time: 15:15 (18:15 UTC)

Forecast

The report was made 8 hours and 15 minutes ago, at 10:00 UTC
Forecast valid from 25 at 12 UTC to 25 at 24 UTC
Wind 7 kt from the North/Northwest
Visibility 10 km or more
Scattered clouds at a height of 1700 ft
Scattered clouds at a height of 4500 ft

TAF: SBIL 251000Z 2512/2524 34007KT 9999 SCT017 SCT045 TN27/2512Z TX29/2515Z RMK PEU

Weather observations and forecasts of more than 4000 airports (METAR and TAF reports).

The available stations are represented by yellow and red dots on the map.

Hover mouse over dot to see the name of the station.

Then click to see weather observations and forecasts.

To change the map : click on the green buttons with a black cross to zoom in, on the green button with a dash to zoom out, or on the green arrows for adjacent maps.


METAR-TAF: